Time;durP1;ratioP1;P1;durP2;ratioP2;P2;SDS_P1;SDS_P2;PMS_P1;PMS_P2;Temp;Humidity;BMP_temperature;BMP_pressure;BME280_temperature;BME280_humidity;BME280_pressure;Samples;Min_cycle;Max_cycle;Signal;HPM_P1;HPM_P2
2022/01/12 00:00:50;;;;;;;63.03;17.17;;;-0.30;97.30;;;;;;4977345;28;20432;-84
2022/01/12 00:03:15;;;;;;;63.70;17.10;;;-0.40;97.30;;;;;;4977434;28;20999;-83
2022/01/12 00:05:41;;;;;;;65.20;21.17;;;-0.40;97.30;;;;;;4978489;28;20174;-84
2022/01/12 00:08:08;;;;;;;66.23;15.80;;;-0.40;97.30;;;;;;4978097;28;20547;-84
2022/01/12 00:10:34;;;;;;;71.00;14.47;;;-0.40;97.30;;;;;;4978037;28;20421;-84
2022/01/12 00:13:00;;;;;;;70.67;17.70;;;-0.40;97.30;;;;;;4977663;28;20449;-85
2022/01/12 00:15:25;;;;;;;82.10;17.77;;;-0.50;97.30;;;;;;4977900;28;20484;-84
2022/01/12 00:17:51;;;;;;;77.00;15.77;;;-0.40;97.30;;;;;;4977472;28;20264;-84
2022/01/12 00:20:17;;;;;;;84.30;16.00;;;-0.40;97.30;;;;;;4977990;28;20637;-83
2022/01/12 00:22:43;;;;;;;66.33;16.97;;;-0.40;97.30;;;;;;4978140;28;20213;-81
2022/01/12 00:25:26;;;;;;;69.53;14.90;;;-0.40;97.30;;;;;;4978362;28;20177;-84
2022/01/12 00:33:21;;;;;;;60.60;16.23;;;-0.60;97.30;;;;;;4995042;28;20436;-83
2022/01/12 00:35:50;;;;;;;41.33;13.20;;;-0.50;97.30;;;;;;4977373;28;20417;-84
2022/01/12 00:38:16;;;;;;;71.17;16.50;;;-0.50;97.30;;;;;;4977116;28;20456;-84
2022/01/12 00:40:44;;;;;;;67.90;15.03;;;-0.60;97.30;;;;;;4977053;28;20424;-84
2022/01/12 00:43:11;;;;;;;58.03;13.80;;;-0.60;97.30;;;;;;4976906;28;20472;-84
2022/01/12 00:45:41;;;;;;;114.90;18.20;;;-0.60;97.30;;;;;;4992929;28;20405;-85
2022/01/12 00:48:07;;;;;;;73.13;15.13;;;-0.70;97.30;;;;;;4974478;28;20405;-84
2022/01/12 00:50:32;;;;;;;53.03;14.43;;;-0.70;97.30;;;;;;4975001;28;20420;-84
2022/01/12 00:52:58;;;;;;;88.30;17.93;;;-0.70;97.30;;;;;;4974562;28;20340;-84
2022/01/12 00:55:24;;;;;;;71.07;14.90;;;-0.60;97.30;;;;;;4974994;28;20555;-84
2022/01/12 00:57:51;;;;;;;69.03;14.53;;;-0.60;97.30;;;;;;4975566;28;20204;-84
2022/01/12 01:00:16;;;;;;;76.37;16.67;;;-0.60;97.30;;;;;;4992684;28;20607;-85
2022/01/12 01:02:42;;;;;;;61.00;15.13;;;-0.60;97.30;;;;;;4974848;28;20483;-84
2022/01/12 01:05:08;;;;;;;56.17;14.80;;;-0.60;97.30;;;;;;4975403;28;20422;-85
2022/01/12 01:07:33;;;;;;;72.90;15.80;;;-0.60;97.30;;;;;;4992656;28;20253;-84
2022/01/12 01:10:07;;;;;;;55.90;15.07;;;-0.60;97.30;;;;;;4975218;28;20732;-84
2022/01/12 01:12:35;;;;;;;61.73;16.13;;;-0.70;97.30;;;;;;4974629;28;20206;-85
2022/01/12 01:15:10;;;;;;;78.10;15.47;;;-0.70;97.30;;;;;;4974902;28;20946;-84
2022/01/12 01:25:39;;;;;;;64.10;15.50;;;-0.80;97.30;;;;;;4992605;28;20452;-84
2022/01/12 01:28:06;;;;;;;50.63;14.00;;;-0.80;97.30;;;;;;4992657;28;20417;-83
2022/01/12 01:30:35;;;;;;;71.40;14.97;;;-0.70;97.30;;;;;;4975449;28;20675;-84
2022/01/12 01:33:05;;;;;;;68.60;15.20;;;-0.70;97.30;;;;;;4974728;28;20826;-84
2022/01/12 01:35:32;;;;;;;53.73;15.80;;;-0.70;97.30;;;;;;4974853;28;20421;-84
2022/01/12 01:38:00;;;;;;;70.40;17.97;;;-0.60;97.30;;;;;;4975275;28;20711;-84
2022/01/12 01:40:26;;;;;;;64.17;16.27;;;-0.60;97.30;;;;;;4975232;28;20425;-83
2022/01/12 01:53:37;;;;;;;46.30;13.67;;;-0.60;97.30;;;;;;4994186;28;20439;-84
2022/01/12 01:56:03;;;;;;;56.10;15.17;;;-0.60;97.30;;;;;;4976654;28;20413;-83
2022/01/12 01:58:28;;;;;;;52.70;14.27;;;-0.60;97.30;;;;;;4993667;28;20431;-83
2022/01/12 02:00:54;;;;;;;64.70;14.40;;;-0.60;97.30;;;;;;4976362;28;20241;-83
2022/01/12 02:03:19;;;;;;;54.57;14.17;;;-0.70;97.30;;;;;;4975925;28;20328;-84
2022/01/12 02:05:46;;;;;;;57.30;15.90;;;-0.70;97.30;;;;;;4976323;28;20227;-83
2022/01/12 02:08:11;;;;;;;59.73;15.97;;;-0.70;97.30;;;;;;4976166;28;20180;-84
2022/01/12 02:10:37;;;;;;;64.40;17.00;;;-0.70;97.30;;;;;;4976269;28;20421;-84
2022/01/12 02:13:04;;;;;;;56.13;17.10;;;-0.70;97.30;;;;;;4976014;28;20206;-83
2022/01/12 02:15:30;;;;;;;50.03;16.50;;;-0.70;97.30;;;;;;4975601;28;20183;-84
2022/01/12 02:18:06;;;;;;;45.50;15.50;;;-0.70;97.30;;;;;;4976250;28;20423;-83
2022/01/12 02:35:20;;;;;;;63.07;14.77;;;-0.80;97.30;;;;;;4997204;28;20440;-83
2022/01/12 02:40:25;;;;;;;52.27;15.37;;;-0.70;97.30;;;;;;4997252;28;20408;-84
2022/01/12 02:53:46;;;;;;;66.80;16.30;;;-0.70;97.30;;;;;;4996699;28;20516;-84
2022/01/12 02:56:15;;;;;;;48.23;13.30;;;-0.70;97.30;;;;;;4979520;28;20429;-84
2022/01/12 02:58:42;;;;;;;51.03;15.87;;;-0.70;97.30;;;;;;4979331;28;20185;-84
2022/01/12 03:03:56;;;;;;;48.40;13.43;;;-0.70;97.30;;;;;;4996143;28;20479;-83
2022/01/12 03:06:27;;;;;;;52.27;16.00;;;-0.70;97.30;;;;;;4978874;28;20784;-83
2022/01/12 03:08:53;;;;;;;46.57;14.73;;;-0.70;97.30;;;;;;4996265;28;20401;-84
2022/01/12 03:11:21;;;;;;;46.63;13.87;;;-0.70;97.30;;;;;;4996327;28;20460;-83
2022/01/12 03:13:47;;;;;;;53.63;13.17;;;-0.70;97.30;;;;;;4996313;28;20791;-83
2022/01/12 03:16:15;;;;;;;62.17;15.37;;;-0.70;97.30;;;;;;4979087;28;20428;-84
2022/01/12 03:18:55;;;;;;;42.03;14.00;;;-0.80;97.30;;;;;;4979107;28;20420;-83
2022/01/12 03:21:23;;;;;;;59.60;16.10;;;-0.80;97.30;;;;;;4978696;28;20425;-84
2022/01/12 03:23:50;;;;;;;53.90;14.10;;;-0.80;97.30;;;;;;4995885;28;20484;-84
2022/01/12 03:26:16;;;;;;;55.77;14.70;;;-0.80;97.30;;;;;;4995997;28;20409;-84
2022/01/12 03:28:43;;;;;;;36.37;11.73;;;-0.70;97.30;;;;;;4978591;28;20421;-84
2022/01/12 03:31:20;;;;;;;50.67;15.90;;;-0.70;97.30;;;;;;4978381;28;20416;-84
2022/01/12 03:36:24;;;;;;;50.23;13.57;;;-0.70;97.30;;;;;;4996184;28;20413;-84
2022/01/12 03:38:53;;;;;;;42.90;14.13;;;-0.70;97.30;;;;;;4978264;28;20280;-84
2022/01/12 03:41:19;;;;;;;52.70;16.63;;;-0.70;97.30;;;;;;4995655;28;20441;-84
2022/01/12 03:43:45;;;;;;;53.37;15.77;;;-0.70;97.30;;;;;;4978129;28;20543;-84
2022/01/12 03:46:12;;;;;;;50.63;13.57;;;-0.60;97.30;;;;;;4995585;28;20467;-84
2022/01/12 03:48:37;;;;;;;50.70;14.53;;;-0.70;97.30;;;;;;4978207;28;20421;-85
2022/01/12 03:51:03;;;;;;;58.20;14.27;;;-0.60;97.30;;;;;;4978119;28;20512;-84
2022/01/12 03:53:28;;;;;;;41.30;14.40;;;-0.60;97.30;;;;;;4977859;28;20198;-84
2022/01/12 03:55:54;;;;;;;50.90;14.90;;;-0.60;97.30;;;;;;4978052;28;20272;-84
2022/01/12 03:58:19;;;;;;;56.77;14.50;;;-0.60;97.30;;;;;;4977750;28;20554;-84
2022/01/12 04:00:45;;;;;;;51.10;14.47;;;-0.60;97.30;;;;;;4977714;28;20178;-82
2022/01/12 04:03:13;;;;;;;51.20;15.30;;;-0.50;97.30;;;;;;4977539;28;20240;-84
2022/01/12 04:08:20;;;;;;;48.83;13.93;;;-0.50;97.30;;;;;;4995266;28;20424;-84
2022/01/12 04:10:50;;;;;;;48.00;15.90;;;-0.50;97.30;;;;;;4977583;28;20166;-83
2022/01/12 04:13:16;;;;;;;51.13;15.43;;;-0.50;97.30;;;;;;4977586;28;20448;-84
2022/01/12 04:15:43;;;;;;;48.70;14.57;;;-0.50;97.30;;;;;;4977767;28;20432;-84
2022/01/12 04:18:09;;;;;;;60.53;17.57;;;-0.50;97.30;;;;;;4977358;28;20186;-84
2022/01/12 04:20:44;;;;;;;53.43;16.20;;;-0.50;97.30;;;;;;4977597;28;20517;-84
2022/01/12 04:23:18;;;;;;;42.30;13.33;;;-0.50;97.30;;;;;;4977395;28;20224;-84
2022/01/12 04:25:50;;;;;;;42.97;13.70;;;-0.40;97.30;;;;;;4977213;28;20547;-84
2022/01/12 04:28:17;;;;;;;41.10;15.23;;;-0.40;97.30;;;;;;4977205;28;20416;-83
2022/01/12 04:30:43;;;;;;;52.70;16.03;;;-0.40;97.30;;;;;;4994879;28;20409;-84
2022/01/12 04:33:09;;;;;;;48.00;14.30;;;-0.40;97.30;;;;;;4976888;28;20441;-84
2022/01/12 04:35:39;;;;;;;50.03;13.80;;;-0.40;97.30;;;;;;4977187;28;20424;-84
2022/01/12 04:38:05;;;;;;;47.27;14.70;;;-0.40;97.30;;;;;;4977348;28;20714;-83
2022/01/12 04:40:31;;;;;;;51.77;15.00;;;-0.40;97.30;;;;;;4977034;28;20421;-84
2022/01/12 04:42:57;;;;;;;51.77;17.20;;;-0.40;97.30;;;;;;4976939;28;20217;-84
2022/01/12 04:45:37;;;;;;;49.80;15.13;;;-0.40;97.30;;;;;;4976109;28;20429;-85
2022/01/12 04:50:35;;;;;;;40.07;12.87;;;-0.40;97.30;;;;;;4994151;28;20476;-84
2022/01/12 04:53:01;;;;;;;45.13;15.67;;;-0.40;97.30;;;;;;4976651;28;20437;-84
2022/01/12 04:55:27;;;;;;;53.53;15.37;;;-0.30;97.30;;;;;;4994315;28;20409;-84
2022/01/12 04:57:53;;;;;;;46.20;15.70;;;-0.30;97.30;;;;;;4994640;28;20424;-84
2022/01/12 05:00:18;;;;;;;49.53;13.83;;;-0.30;97.30;;;;;;4994602;28;20542;-85
2022/01/12 05:08:21;;;;;;;45.40;15.03;;;-0.30;97.30;;;;;;4994581;28;20403;-84
2022/01/12 05:13:33;;;;;;;50.97;14.83;;;-0.30;97.30;;;;;;4994301;28;20438;-85
2022/01/12 05:16:00;;;;;;;49.40;14.07;;;-0.30;97.30;;;;;;4976435;28;20431;-85
2022/01/12 05:18:26;;;;;;;49.87;15.07;;;-0.20;97.30;;;;;;4976438;28;20930;-85
2022/01/12 05:20:52;;;;;;;43.80;15.00;;;-0.20;97.30;;;;;;4976482;28;20428;-84
2022/01/12 05:23:17;;;;;;;48.70;14.23;;;-0.20;97.30;;;;;;4976290;28;20850;-84
2022/01/12 05:25:46;;;;;;;53.30;15.50;;;-0.10;97.30;;;;;;4976395;28;20659;-84
2022/01/12 05:28:14;;;;;;;45.90;15.67;;;-0.10;97.30;;;;;;4976459;28;20204;-85
2022/01/12 05:30:40;;;;;;;42.23;15.10;;;-0.10;97.30;;;;;;4976468;28;20445;-85
2022/01/12 05:33:06;;;;;;;48.80;13.30;;;0.00;97.30;;;;;;4976292;28;20959;-85
2022/01/12 05:35:33;;;;;;;48.60;16.50;;;0.00;97.30;;;;;;4975979;28;20421;-84
2022/01/12 05:38:01;;;;;;;51.70;14.60;;;-0.10;97.30;;;;;;4976611;28;20432;-85
2022/01/12 05:40:28;;;;;;;35.07;13.60;;;-0.10;97.30;;;;;;4993571;28;20424;-85
2022/01/12 05:42:55;;;;;;;50.73;17.60;;;-0.10;97.30;;;;;;4976061;28;20480;-84
2022/01/12 05:45:22;;;;;;;46.77;15.53;;;0.00;97.30;;;;;;4976226;28;20439;-85
2022/01/12 05:50:14;;;;;;;60.57;15.00;;;0.00;97.30;;;;;;4993842;28;20511;-85
2022/01/12 05:52:43;;;;;;;46.30;15.37;;;0.00;97.30;;;;;;4993130;28;20487;-84
2022/01/12 05:55:10;;;;;;;57.57;15.43;;;0.10;97.30;;;;;;4976033;28;20425;-85
2022/01/12 05:57:37;;;;;;;52.00;17.53;;;0.10;97.30;;;;;;4977703;28;20484;-85
2022/01/12 06:00:06;;;;;;;46.70;14.87;;;0.10;97.30;;;;;;4997572;28;20503;-84
2022/01/12 06:02:31;;;;;;;58.80;15.57;;;0.10;97.30;;;;;;4979354;28;20482;-84
2022/01/12 06:04:57;;;;;;;54.37;16.23;;;0.10;97.30;;;;;;4979906;28;20471;-85
2022/01/12 06:07:22;;;;;;;60.57;15.40;;;0.20;97.30;;;;;;4997490;28;20673;-84
2022/01/12 06:09:48;;;;;;;45.13;13.43;;;0.20;97.30;;;;;;4979959;28;20182;-85
2022/01/12 06:12:13;;;;;;;49.17;15.00;;;0.20;97.30;;;;;;4979726;28;20213;-85
2022/01/12 06:14:41;;;;;;;40.20;14.80;;;0.30;97.30;;;;;;4997287;28;20180;-84
2022/01/12 06:17:10;;;;;;;42.57;14.37;;;0.30;97.30;;;;;;4979722;28;20178;-84
2022/01/12 06:19:36;;;;;;;43.90;15.03;;;0.30;97.30;;;;;;4997467;28;20419;-84
2022/01/12 06:22:03;;;;;;;46.43;14.63;;;0.40;97.30;;;;;;4979572;28;20457;-84
2022/01/12 06:24:28;;;;;;;47.73;14.37;;;0.30;97.30;;;;;;4979420;28;20525;-85
2022/01/12 06:26:55;;;;;;;47.27;15.20;;;0.30;97.30;;;;;;4979193;28;20958;-85
2022/01/12 06:31:49;;;;;;;49.90;15.30;;;0.30;97.30;;;;;;4997019;28;20408;-85
2022/01/12 06:34:16;;;;;;;43.00;13.10;;;0.20;97.30;;;;;;4979203;28;20202;-84
2022/01/12 06:36:42;;;;;;;39.80;14.10;;;0.20;97.30;;;;;;4979493;28;20414;-85
2022/01/12 06:39:11;;;;;;;53.83;16.40;;;0.10;97.30;;;;;;4979304;28;20927;-83
2022/01/12 06:41:38;;;;;;;43.73;13.73;;;0.10;97.30;;;;;;4980651;28;20417;-83
2022/01/12 06:44:05;;;;;;;45.30;16.30;;;0.10;97.30;;;;;;4977755;28;20468;-85
2022/01/12 06:46:32;;;;;;;52.23;15.30;;;0.20;97.30;;;;;;4977225;28;20436;-85
2022/01/12 06:48:58;;;;;;;47.87;14.00;;;0.20;97.30;;;;;;4976758;28;20506;-82
2022/01/12 06:51:23;;;;;;;39.30;13.30;;;0.20;97.30;;;;;;4977224;28;20421;-84
2022/01/12 06:53:49;;;;;;;49.67;15.70;;;0.20;97.30;;;;;;4977408;28;20484;-83
2022/01/12 06:56:17;;;;;;;49.27;16.57;;;0.30;97.30;;;;;;4977077;28;20652;-83
2022/01/12 06:58:43;;;;;;;41.87;12.97;;;0.30;97.30;;;;;;4977026;28;20437;-83
2022/01/12 07:01:09;;;;;;;41.47;12.97;;;0.30;97.30;;;;;;4977375;28;20436;-83
2022/01/12 07:03:34;;;;;;;43.30;13.40;;;0.30;97.30;;;;;;4977240;28;20480;-83
2022/01/12 07:06:00;;;;;;;51.73;16.47;;;0.30;97.30;;;;;;4978927;28;20174;-85
2022/01/12 07:08:25;;;;;;;55.40;14.90;;;0.30;97.30;;;;;;4995579;28;20178;-84
2022/01/12 07:10:51;;;;;;;56.60;16.57;;;0.40;97.30;;;;;;4978399;28;20251;-84
2022/01/12 07:13:16;;;;;;;42.17;16.20;;;0.40;97.30;;;;;;4978575;28;20574;-86
2022/01/12 07:15:44;;;;;;;47.67;15.30;;;0.40;97.30;;;;;;4977851;28;20185;-83
2022/01/12 07:18:09;;;;;;;44.83;16.37;;;0.50;97.30;;;;;;4977520;28;20174;-83
2022/01/12 07:20:35;;;;;;;48.87;19.50;;;0.50;97.30;;;;;;4977331;28;20420;-84
2022/01/12 07:23:01;;;;;;;44.97;17.40;;;0.50;97.30;;;;;;4978721;28;20224;-84
2022/01/12 07:25:26;;;;;;;46.20;15.00;;;0.60;97.30;;;;;;4983136;28;20425;-83
2022/01/12 07:27:52;;;;;;;41.70;13.97;;;0.60;97.30;;;;;;4983047;28;20178;-83
2022/01/12 07:30:20;;;;;;;42.30;13.90;;;0.60;97.30;;;;;;4994425;28;20611;-84
2022/01/12 07:32:46;;;;;;;48.07;16.13;;;0.60;97.30;;;;;;4976372;28;20456;-83
2022/01/12 07:35:12;;;;;;;39.77;13.07;;;0.60;97.30;;;;;;4963533;28;20434;-86
2022/01/12 07:37:37;;;;;;;35.87;12.30;;;0.60;97.30;;;;;;4957438;28;20540;-84
2022/01/12 07:40:03;;;;;;;40.13;14.27;;;0.50;97.30;;;;;;4957048;28;20190;-86
2022/01/12 07:42:28;;;;;;;39.60;12.57;;;0.50;97.30;;;;;;4956700;28;20217;-83
2022/01/12 07:44:59;;;;;;;38.50;12.00;;;0.50;97.30;;;;;;4974248;28;20771;-83
2022/01/12 07:47:27;;;;;;;44.57;15.03;;;0.50;97.30;;;;;;4957498;28;20173;-84
2022/01/12 07:49:53;;;;;;;41.07;14.70;;;0.50;97.30;;;;;;4956600;28;20425;-83
2022/01/12 07:52:19;;;;;;;42.77;12.20;;;0.60;97.30;;;;;;4956833;28;20434;-85
2022/01/12 07:54:44;;;;;;;32.47;12.23;;;0.60;97.30;;;;;;4959898;28;20418;-85
2022/01/12 07:57:10;;;;;;;35.40;12.93;;;0.70;97.30;;;;;;4964327;28;20518;-85
2022/01/12 07:59:35;;;;;;;29.97;11.20;;;0.70;97.30;;;;;;4962893;28;20184;-85
2022/01/12 08:02:01;;;;;;;37.20;11.50;;;0.80;97.30;;;;;;4980687;28;20187;-84
2022/01/12 08:04:27;;;;;;;33.00;11.27;;;0.80;97.30;;;;;;4961542;28;20242;-84
2022/01/12 08:06:53;;;;;;;38.37;14.23;;;0.90;97.30;;;;;;4962089;28;20418;-84
2022/01/12 08:09:18;;;;;;;35.30;11.53;;;0.90;97.30;;;;;;4961774;28;20171;-84
2022/01/12 08:11:44;;;;;;;40.37;13.13;;;1.00;97.30;;;;;;4978811;28;20565;-84
2022/01/12 08:14:10;;;;;;;36.77;11.03;;;1.00;97.30;;;;;;4974777;28;20198;-84
2022/01/12 08:16:35;;;;;;;29.43;10.80;;;1.00;97.30;;;;;;4957261;28;20183;-84
2022/01/12 08:19:00;;;;;;;40.53;12.60;;;1.10;97.30;;;;;;4957356;28;20186;-84
2022/01/12 08:21:27;;;;;;;29.83;10.50;;;1.10;97.30;;;;;;4957907;28;20716;-84
2022/01/12 08:23:53;;;;;;;32.07;11.70;;;1.10;97.30;;;;;;4975216;28;20238;-84
2022/01/12 08:26:18;;;;;;;32.77;10.53;;;1.10;97.30;;;;;;4975516;28;20422;-84
2022/01/12 08:28:45;;;;;;;27.93;9.27;;;1.10;97.30;;;;;;4958779;28;20198;-84
2022/01/12 08:31:10;;;;;;;30.50;10.50;;;1.20;97.30;;;;;;4958379;28;20436;-84
2022/01/12 08:33:36;;;;;;;24.17;8.60;;;1.30;97.30;;;;;;4957736;28;20268;-84
2022/01/12 08:36:03;;;;;;;30.60;10.33;;;1.30;97.30;;;;;;4957825;28;20194;-84
2022/01/12 08:38:28;;;;;;;22.20;9.20;;;1.40;97.30;;;;;;4958089;28;20197;-84
2022/01/12 08:40:55;;;;;;;21.37;9.63;;;1.50;97.30;;;;;;4957644;28;20430;-84
2022/01/12 08:43:20;;;;;;;32.00;10.87;;;1.50;97.30;;;;;;4974581;28;20340;-84
2022/01/12 08:45:46;;;;;;;26.87;9.20;;;1.60;97.30;;;;;;4957473;28;20460;-84
2022/01/12 08:48:12;;;;;;;20.23;8.40;;;1.80;97.30;;;;;;4957485;28;20671;-84
2022/01/12 08:50:37;;;;;;;22.77;9.57;;;1.90;97.30;;;;;;4974751;28;20692;-84
2022/01/12 08:53:03;;;;;;;25.53;9.20;;;2.00;97.30;;;;;;4957382;28;20206;-84
2022/01/12 08:55:28;;;;;;;22.60;9.60;;;2.10;97.30;;;;;;4957472;28;20189;-84
2022/01/12 08:57:56;;;;;;;22.13;8.90;;;2.20;97.30;;;;;;4957275;28;20190;-84
2022/01/12 09:00:22;;;;;;;18.90;7.70;;;2.30;97.30;;;;;;4957057;28;20282;-84
2022/01/12 09:02:47;;;;;;;25.67;7.97;;;2.30;97.30;;;;;;4974044;28;21052;-84
2022/01/12 09:05:14;;;;;;;27.50;8.93;;;2.30;97.30;;;;;;4957205;28;20587;-84
2022/01/12 09:07:41;;;;;;;18.17;7.60;;;2.40;97.30;;;;;;4956797;28;20209;-84
2022/01/12 09:10:07;;;;;;;23.57;8.63;;;2.40;97.30;;;;;;4957157;28;20422;-84
2022/01/12 09:12:32;;;;;;;20.67;8.50;;;2.40;97.30;;;;;;4957071;28;20446;-84
2022/01/12 09:14:58;;;;;;;25.37;8.37;;;2.40;97.30;;;;;;4957170;28;20941;-84
2022/01/12 09:17:24;;;;;;;20.37;6.90;;;2.50;97.30;;;;;;4957239;28;20193;-83
2022/01/12 09:19:52;;;;;;;21.20;8.17;;;2.50;97.30;;;;;;4956815;28;20446;-84
2022/01/12 09:22:18;;;;;;;25.57;7.67;;;2.50;97.30;;;;;;4956636;28;20182;-83
2022/01/12 09:24:44;;;;;;;25.93;8.80;;;2.60;97.30;;;;;;4956829;28;20433;-84
2022/01/12 09:27:10;;;;;;;16.83;7.37;;;2.60;97.30;;;;;;4956993;28;20422;-84
2022/01/12 09:29:36;;;;;;;17.87;7.37;;;2.60;97.30;;;;;;4973850;28;20418;-83
2022/01/12 09:32:02;;;;;;;17.60;7.90;;;2.70;97.30;;;;;;4956654;28;20492;-84
2022/01/12 09:34:27;;;;;;;16.97;6.73;;;2.70;97.30;;;;;;4956685;28;20445;-83
2022/01/12 09:36:53;;;;;;;15.10;6.27;;;2.70;97.30;;;;;;4956807;28;20179;-83
2022/01/12 09:39:19;;;;;;;17.23;7.27;;;2.80;97.30;;;;;;4957034;28;20196;-84
2022/01/12 09:41:44;;;;;;;14.80;7.60;;;2.90;97.30;;;;;;4955273;28;20349;-84
2022/01/12 09:44:11;;;;;;;17.80;7.10;;;2.90;97.30;;;;;;4954501;28;20210;-83
2022/01/12 09:46:37;;;;;;;18.47;7.33;;;3.00;97.30;;;;;;4954895;28;20661;-84
2022/01/12 09:49:06;;;;;;;17.00;7.40;;;3.00;97.30;;;;;;4955170;28;20422;-83
2022/01/12 09:51:32;;;;;;;18.30;8.07;;;3.00;97.30;;;;;;4955174;28;21047;-83
2022/01/12 09:53:58;;;;;;;12.00;5.83;;;3.10;97.30;;;;;;4954606;28;20446;-83
2022/01/12 09:56:29;;;;;;;16.47;6.63;;;3.10;97.30;;;;;;4955468;28;20418;-84
2022/01/12 09:58:56;;;;;;;21.43;7.10;;;3.10;97.30;;;;;;4955436;28;20619;-83
2022/01/12 10:01:39;;;;;;;14.37;6.87;;;3.10;97.30;;;;;;4972675;28;20975;-84
2022/01/12 10:04:07;;;;;;;12.40;5.93;;;3.20;97.30;;;;;;4972037;28;20533;-84
2022/01/12 10:06:38;;;;;;;21.27;6.30;;;3.20;97.30;;;;;;4955079;28;20430;-83
2022/01/12 10:09:04;;;;;;;20.83;7.87;;;3.30;97.30;;;;;;4954902;28;20453;-83
2022/01/12 10:11:29;;;;;;;19.27;7.20;;;3.30;97.30;;;;;;4954670;28;20496;-83
2022/01/12 10:13:57;;;;;;;17.77;7.40;;;3.40;97.30;;;;;;4954894;28;20202;-84
2022/01/12 10:16:26;;;;;;;16.03;7.67;;;3.50;97.30;;;;;;4955000;28;20225;-83
2022/01/12 10:18:53;;;;;;;17.10;6.50;;;3.60;97.30;;;;;;4955080;28;20422;-83
2022/01/12 10:21:40;;;;;;;21.07;7.03;;;3.60;97.30;;;;;;4955249;28;20425;-83
2022/01/12 10:24:09;;;;;;;16.27;6.63;;;3.60;97.30;;;;;;4955396;28;20505;-83
2022/01/12 10:26:40;;;;;;;16.53;7.03;;;3.60;97.30;;;;;;4973812;28;20441;-83
2022/01/12 10:29:17;;;;;;;16.40;7.70;;;3.60;97.30;;;;;;4956710;28;20402;-83
2022/01/12 10:31:52;;;;;;;17.90;6.43;;;3.70;97.30;;;;;;4956644;28;20792;-83
2022/01/12 10:34:20;;;;;;;14.47;6.73;;;3.80;97.30;;;;;;4956356;28;20971;-84
2022/01/12 10:36:47;;;;;;;17.20;6.97;;;3.90;97.30;;;;;;4977021;28;20460;-83
2022/01/12 10:39:14;;;;;;;11.33;6.40;;;3.90;97.30;;;;;;4976623;28;20894;-84
2022/01/12 10:42:05;;;;;;;17.13;6.77;;;3.80;97.30;;;;;;4976564;28;20452;-83
2022/01/12 10:44:34;;;;;;;16.03;7.20;;;3.80;97.30;;;;;;4974594;28;20818;-82
2022/01/12 10:47:11;;;;;;;14.90;6.23;;;3.90;97.30;;;;;;4976659;28;20421;-82
2022/01/12 10:49:56;;;;;;;16.27;6.40;;;3.90;97.30;;;;;;4978060;28;20409;-81
2022/01/12 10:52:30;;;;;;;19.93;7.17;;;4.00;97.30;;;;;;4970978;28;20401;-82
2022/01/12 10:55:04;;;;;;;30.40;7.50;;;4.00;97.30;;;;;;4975781;28;20447;-82
2022/01/12 10:57:33;;;;;;;17.10;6.30;;;4.10;97.30;;;;;;4987494;28;20401;-82
2022/01/12 11:00:06;;;;;;;16.63;7.00;;;4.10;97.30;;;;;;4986949;28;20475;-82
2022/01/12 11:02:33;;;;;;;12.33;5.80;;;4.10;97.30;;;;;;4969993;28;20473;-82
2022/01/12 11:05:00;;;;;;;12.83;5.87;;;4.10;97.30;;;;;;4989739;28;20948;-82
2022/01/12 11:07:27;;;;;;;15.63;6.33;;;4.00;97.30;;;;;;4981938;28;20416;-82
2022/01/12 11:09:55;;;;;;;14.87;7.40;;;4.00;97.30;;;;;;4984569;28;20495;-81
2022/01/12 11:12:21;;;;;;;13.50;6.57;;;4.00;97.30;;;;;;4992473;28;20826;-82
2022/01/12 11:14:47;;;;;;;11.67;5.60;;;4.00;97.30;;;;;;4999212;28;20428;-82
2022/01/12 11:17:12;;;;;;;12.87;6.13;;;4.00;97.30;;;;;;4979013;28;20313;-82
2022/01/12 11:19:43;;;;;;;14.03;6.90;;;4.00;97.30;;;;;;4978859;28;20556;-82
2022/01/12 11:22:27;;;;;;;16.23;6.17;;;4.00;97.30;;;;;;4981068;28;20257;-81
2022/01/12 11:24:54;;;;;;;15.57;7.00;;;4.10;97.30;;;;;;4964611;28;21251;-80
2022/01/12 11:27:23;;;;;;;15.60;6.43;;;4.10;97.30;;;;;;4979498;28;20424;-82
2022/01/12 11:29:48;;;;;;;16.10;7.57;;;4.10;97.30;;;;;;4976985;28;20422;-82
2022/01/12 11:32:22;;;;;;;13.93;6.20;;;4.10;97.30;;;;;;4983999;28;20580;-82
2022/01/12 11:35:02;;;;;;;14.87;6.50;;;4.10;97.30;;;;;;4971901;28;20190;-83
2022/01/12 11:37:27;;;;;;;17.73;5.73;;;4.20;97.30;;;;;;4974600;28;20436;-82
2022/01/12 11:39:53;;;;;;;14.90;6.50;;;4.20;97.30;;;;;;4976577;28;20418;-82
2022/01/12 11:42:19;;;;;;;14.20;6.90;;;4.20;97.30;;;;;;4987305;28;20265;-82
2022/01/12 11:44:45;;;;;;;18.90;6.67;;;4.20;97.30;;;;;;4983335;28;20193;-82
2022/01/12 11:47:13;;;;;;;17.90;6.47;;;4.30;97.30;;;;;;4978309;28;20198;-82
2022/01/12 11:49:47;;;;;;;16.50;7.10;;;4.30;97.30;;;;;;4978332;28;20425;-83
2022/01/12 11:52:18;;;;;;;41.00;14.20;;;4.30;97.30;;;;;;4977308;28;20421;-82
2022/01/12 11:54:47;;;;;;;21.73;9.20;;;4.30;97.30;;;;;;4977707;28;20417;-81
2022/01/12 11:57:18;;;;;;;19.43;8.20;;;4.30;97.30;;;;;;4978312;28;20418;-82
2022/01/12 12:00:01;;;;;;;140.03;43.63;;;4.30;97.30;;;;;;4992523;28;20780;-82
2022/01/12 12:02:38;;;;;;;27.50;9.20;;;4.40;97.30;;;;;;4977715;28;20425;-83
2022/01/12 12:05:14;;;;;;;39.37;15.10;;;4.40;97.30;;;;;;4985817;28;20472;-82
2022/01/12 12:07:50;;;;;;;23.63;10.53;;;4.40;97.30;;;;;;4977375;28;20428;-82
2022/01/12 12:10:18;;;;;;;18.30;6.70;;;4.40;97.30;;;;;;4974863;28;20788;-83
2022/01/12 12:12:44;;;;;;;19.37;8.60;;;4.40;97.30;;;;;;4986985;28;20442;-83
2022/01/12 12:15:11;;;;;;;78.07;22.03;;;4.40;97.30;;;;;;4975060;28;20428;-84
2022/01/12 12:17:39;;;;;;;70.47;17.97;;;4.40;97.30;;;;;;4976392;28;20186;-83
2022/01/12 12:20:07;;;;;;;121.00;27.23;;;4.40;97.30;;;;;;4983018;28;20421;-84
2022/01/12 12:22:37;;;;;;;66.90;18.57;;;4.50;97.30;;;;;;4982171;28;20467;-84
2022/01/12 12:25:11;;;;;;;71.97;22.73;;;4.50;97.30;;;;;;4991991;28;20420;-84
2022/01/12 12:27:41;;;;;;;24.00;9.57;;;4.50;97.30;;;;;;4994058;28;20435;-83
2022/01/12 12:30:16;;;;;;;25.80;11.33;;;4.60;97.30;;;;;;4994383;28;20416;-83
2022/01/12 12:32:44;;;;;;;28.60;11.10;;;4.60;97.30;;;;;;4994889;28;20443;-82
2022/01/12 12:35:21;;;;;;;28.03;13.27;;;4.60;97.30;;;;;;4999913;28;20807;-84
2022/01/12 12:37:55;;;;;;;19.73;9.73;;;4.60;97.30;;;;;;4962959;28;20428;-83
2022/01/12 12:40:22;;;;;;;23.97;9.20;;;4.50;97.30;;;;;;4977214;28;20865;-83
2022/01/12 12:42:59;;;;;;;19.83;8.90;;;4.50;97.30;;;;;;4978657;28;21102;-83
2022/01/12 12:45:35;;;;;;;18.87;9.50;;;4.50;97.30;;;;;;4988642;28;20492;-83
2022/01/12 12:48:05;;;;;;;14.70;8.00;;;4.50;97.30;;;;;;4978385;28;20443;-83
2022/01/12 12:50:32;;;;;;;18.17;7.70;;;4.50;97.30;;;;;;4994308;28;20449;-83
2022/01/12 12:52:59;;;;;;;21.57;7.30;;;4.60;97.30;;;;;;4976753;28;20445;-83
2022/01/12 12:55:25;;;;;;;17.70;6.40;;;4.60;97.30;;;;;;4977013;28;21093;-83
2022/01/12 12:57:53;;;;;;;13.30;6.33;;;4.60;97.30;;;;;;4976829;28;20424;-84
2022/01/12 13:00:23;;;;;;;14.40;7.00;;;4.60;97.30;;;;;;4976857;28;20182;-83
2022/01/12 13:02:50;;;;;;;16.23;6.27;;;4.70;97.30;;;;;;4993975;28;20525;-83
2022/01/12 13:05:38;;;;;;;17.90;6.57;;;4.70;97.30;;;;;;4977547;28;20397;-83
2022/01/12 13:08:06;;;;;;;13.00;5.80;;;4.70;97.30;;;;;;4993209;28;20423;-83
2022/01/12 13:10:33;;;;;;;12.27;6.07;;;4.80;97.30;;;;;;4983055;28;20997;-83
2022/01/12 13:13:19;;;;;;;12.13;5.70;;;4.90;97.30;;;;;;4972508;28;20463;-83
2022/01/12 13:15:46;;;;;;;12.70;6.20;;;5.00;97.30;;;;;;4975389;28;20421;-82
2022/01/12 13:18:14;;;;;;;14.63;6.47;;;5.00;97.30;;;;;;4977124;28;20459;-83
2022/01/12 13:23:31;;;;;;;12.80;5.37;;;5.00;97.30;;;;;;4991265;28;20507;-84
2022/01/12 13:26:01;;;;;;;11.43;6.10;;;5.00;97.30;;;;;;4975200;28;20452;-83
2022/01/12 13:28:27;;;;;;;14.47;6.80;;;5.10;97.30;;;;;;4983119;28;20520;-83
2022/01/12 13:30:57;;;;;;;16.17;5.93;;;5.10;97.30;;;;;;4976600;28;20452;-83
2022/01/12 13:33:32;;;;;;;13.90;6.00;;;5.00;97.30;;;;;;4974135;28;20528;-83
2022/01/12 13:36:09;;;;;;;20.67;6.13;;;5.00;97.30;;;;;;4985753;28;20478;-83
2022/01/12 13:38:35;;;;;;;13.93;5.70;;;5.00;97.30;;;;;;4973945;28;20825;-84
2022/01/12 13:41:18;;;;;;;14.33;5.70;;;5.00;97.30;;;;;;4976489;28;20408;-84
2022/01/12 13:43:47;;;;;;;14.13;6.57;;;5.00;97.30;;;;;;4983642;28;20699;-83
2022/01/12 13:46:15;;;;;;;17.73;6.40;;;5.00;97.30;;;;;;4990750;28;20434;-82
2022/01/12 13:49:06;;;;;;;17.33;6.77;;;5.00;97.30;;;;;;4974105;28;20468;-83
2022/01/12 13:51:37;;;;;;;13.07;6.10;;;4.90;97.30;;;;;;4973697;28;20774;-83
2022/01/12 13:54:07;;;;;;;23.60;6.10;;;4.90;97.30;;;;;;4991454;28;20433;-83
2022/01/12 13:56:45;;;;;;;14.27;7.03;;;4.90;97.30;;;;;;4973844;28;20424;-84
2022/01/12 13:59:12;;;;;;;18.37;7.23;;;4.90;97.30;;;;;;4973731;28;20452;-83
2022/01/12 14:01:40;;;;;;;16.03;6.07;;;4.90;97.30;;;;;;4973949;28;21026;-82